Time;durP1;ratioP1;P1;durP2;ratioP2;P2;SDS_P1;SDS_P2;PMS_P1;PMS_P2;Temp;Humidity;BMP_temperature;BMP_pressure;BME280_temperature;BME280_humidity;BME280_pressure;Samples;Min_cycle;Max_cycle;Signal;HPM_P1;HPM_P2
2023/11/07 09:40:00;;;;;;;3.88;0.52;;;25.50;46.00;26.30;101334.00;;;;5078678;27;20559;-21
2023/11/07 10:08:01;;;;;;;3.15;2.05;;;25.50;46.30;25.40;101372.00;;;;5031999;27;20395;-28
2023/11/07 10:10:26;;;;;;;3.22;0.82;;;24.90;45.90;25.00;101373.00;;;;5029735;28;20644;-27
2023/11/07 10:12:52;;;;;;;5.53;1.15;;;24.50;46.30;24.80;101368.00;;;;5029326;28;20044;-31
2023/11/07 10:15:24;;;;;;;2.55;0.93;;;24.20;46.70;24.60;101376.00;;;;5047179;28;20037;-23
2023/11/07 10:18:10;;;;;;;1.65;1.50;;;24.00;47.10;24.50;101373.00;;;;5032235;28;20112;-32
2023/11/07 10:20:49;;;;;;;4.55;0.93;;;23.80;47.20;24.40;101377.00;;;;5029079;28;20030;-27
2023/11/07 10:30:14;;;;;;;2.30;0.82;;;24.40;51.90;27.00;101368.00;;;;5081385;27;20517;-35
2023/11/07 10:32:45;;;;;;;4.13;0.70;;;24.70;48.20;26.30;101367.00;;;;5071595;28;20380;-34
2023/11/07 10:35:11;;;;;;;2.80;0.25;;;24.70;46.90;25.70;101377.00;;;;5072232;28;20038;-37
2023/11/07 10:37:37;;;;;;;2.60;0.70;;;24.60;46.60;25.30;101382.00;;;;5071869;28;20396;-42
2023/11/07 10:40:06;;;;;;;0.95;0.50;;;24.60;46.50;25.10;101389.00;;;;5071192;28;20040;-44
2023/11/07 10:43:38;;;;;;;2.72;0.30;;;24.40;46.50;24.90;101385.00;;;;5024406;27;65161;-31
2023/11/07 10:46:09;;;;;;;3.58;1.17;;;24.30;46.80;24.80;101382.00;;;;5020117;28;20134;-31
2023/11/07 10:48:38;;;;;;;3.03;0.38;;;24.20;46.50;24.70;101384.00;;;;5020003;28;20037;-32
2023/11/07 10:51:15;;;;;;;5.28;0.45;;;24.20;46.80;24.60;101386.00;;;;5020464;28;20069;-32
2023/11/07 10:53:42;;;;;;;10.38;0.75;;;24.10;46.70;24.60;101384.00;;;;5019865;28;20052;-31
2023/11/07 10:56:14;;;;;;;2.05;0.40;;;24.00;46.70;24.60;101391.00;;;;5020531;28;20048;-35
2023/11/07 10:58:51;;;;;;;2.65;1.00;;;24.00;46.80;24.50;101393.00;;;;5011908;28;20785;-30
2023/11/07 11:01:19;;;;;;;1.35;0.30;;;23.90;46.80;24.50;101379.00;;;;5020729;28;20057;-32
2023/11/07 11:03:50;;;;;;;2.60;0.55;;;23.90;47.00;24.50;101384.00;;;;5021442;28;20029;-48
2023/11/07 11:06:23;;;;;;;0.93;0.60;;;23.80;46.90;24.50;101381.00;;;;5020296;28;20041;-39
2023/11/07 11:08:53;;;;;;;9.60;0.50;;;23.80;47.00;24.50;101379.00;;;;5012709;28;20080;-39
2023/11/07 11:11:20;;;;;;;2.97;0.50;;;23.80;47.20;24.50;101377.00;;;;5021722;28;20069;-37
2023/11/07 11:13:47;;;;;;;1.80;0.40;;;23.80;47.20;24.50;101382.00;;;;5003570;28;20030;-40
2023/11/07 11:16:14;;;;;;;6.13;0.80;;;23.80;47.20;24.60;101374.00;;;;5004252;28;20664;-40
2023/11/07 11:18:56;;;;;;;3.75;0.50;;;23.80;47.10;24.60;101373.00;;;;5020375;28;20805;-38
2023/11/07 11:21:38;;;;;;;4.38;0.43;;;23.80;47.10;24.60;101367.00;;;;5004543;28;20052;-37
2023/11/07 11:24:28;;;;;;;3.17;0.95;;;23.80;47.10;24.60;101370.00;;;;5005207;28;21714;-32
2023/11/07 11:27:19;;;;;;;0.40;0.20;;;23.80;47.20;24.70;101372.00;;;;5019832;28;20034;-32
2023/11/07 11:29:46;;;;;;;7.95;0.82;;;23.80;47.10;24.70;101376.00;;;;5019544;28;20045;-31
2023/11/07 11:32:31;;;;;;;0.77;0.20;;;23.90;47.30;24.70;101373.00;;;;5003560;28;20160;-33
2023/11/07 11:35:19;;;;;;;3.20;0.30;;;23.90;47.20;24.70;101358.00;;;;5021212;28;20056;-28
2023/11/07 11:38:15;;;;;;;1.95;0.28;;;23.90;47.20;24.80;101362.00;;;;5011927;28;20188;-29
2023/11/07 11:41:01;;;;;;;2.20;0.20;;;23.90;47.20;24.80;101368.00;;;;5020349;28;20037;-38
2023/11/07 11:43:36;;;;;;;4.07;0.40;;;23.90;47.30;24.80;101361.00;;;;5009525;28;20702;-33
2023/11/07 11:46:11;;;;;;;1.92;0.17;;;24.00;47.30;24.80;101370.00;;;;5020653;28;20041;-47
2023/11/07 11:48:49;;;;;;;1.65;0.20;;;24.00;47.30;24.90;101365.00;;;;5019603;28;20056;-48
2023/11/07 11:51:41;;;;;;;2.08;0.10;;;24.00;47.30;24.90;101369.00;;;;5020712;28;20053;-48
2023/11/07 11:54:34;;;;;;;0.60;0.28;;;24.00;47.20;24.90;101369.00;;;;5011224;28;20658;-38
2023/11/07 11:57:03;;;;;;;1.50;0.28;;;24.10;47.30;25.00;101363.00;;;;4985154;28;20053;-38
2023/11/07 11:59:56;;;;;;;2.78;0.10;;;24.10;47.40;25.00;101365.00;;;;4984646;28;20050;-39
2023/11/07 12:02:42;;;;;;;2.15;0.40;;;24.10;47.30;25.00;101363.00;;;;4985215;28;20752;-38
2023/11/07 12:05:15;;;;;;;0.75;0.13;;;24.10;47.30;25.10;101362.00;;;;4984922;28;20042;-31
2023/11/07 12:07:41;;;;;;;1.10;0.43;;;24.20;47.20;25.10;101367.00;;;;4984901;28;20043;-30
2023/11/07 12:10:08;;;;;;;2.78;0.28;;;24.20;47.10;25.20;101360.00;;;;4984801;28;20108;-28
2023/11/07 12:12:36;;;;;;;0.85;0.10;;;24.30;47.10;25.20;101350.00;;;;4968513;28;20447;-33
2023/11/07 12:15:03;;;;;;;1.98;0.10;;;24.30;47.00;25.20;101350.00;;;;4976792;28;20077;-31
2023/11/07 12:17:52;;;;;;;3.53;0.40;;;24.30;46.90;25.30;101342.00;;;;4985223;28;20042;-31
2023/11/07 12:20:18;;;;;;;0.70;0.20;;;24.40;46.90;25.30;101351.00;;;;4984864;28;20046;-29
2023/11/07 12:22:46;;;;;;;1.13;0.30;;;24.40;46.90;25.30;101343.00;;;;4984863;28;20816;-30
2023/11/07 12:25:21;;;;;;;0.25;0.20;;;24.40;46.90;25.40;101352.00;;;;4961379;28;20054;-47
2023/11/07 12:27:56;;;;;;;1.23;0.20;;;24.50;46.90;25.40;101340.00;;;;4984984;28;20050;-48
2023/11/07 12:30:22;;;;;;;1.50;0.20;;;24.50;46.80;25.40;101346.00;;;;4985204;28;20078;-48
2023/11/07 12:32:59;;;;;;;1.77;0.20;;;24.50;46.90;25.50;101336.00;;;;4986906;28;20046;-48
2023/11/07 12:35:25;;;;;;;1.35;0.20;;;24.60;46.80;25.50;101346.00;;;;5006431;28;20471;-48
2023/11/07 12:37:52;;;;;;;0.90;0.55;;;24.60;46.70;25.50;101333.00;;;;5005516;28;20033;-48
2023/11/07 12:40:19;;;;;;;4.03;0.40;;;24.60;46.70;25.50;101336.00;;;;5005421;28;20033;-47
2023/11/07 12:42:53;;;;;;;1.08;0.20;;;24.60;46.70;25.60;101340.00;;;;5006421;28;20076;-48
2023/11/07 12:45:28;;;;;;;0.77;0.30;;;24.70;46.60;25.60;101326.00;;;;5006369;28;20569;-31
2023/11/07 12:48:06;;;;;;;0.93;0.30;;;24.70;46.60;25.60;101329.00;;;;4989087;28;20521;-29
2023/11/07 12:50:46;;;;;;;1.02;0.30;;;24.80;46.60;25.70;101336.00;;;;5006071;28;20026;-32
2023/11/07 12:53:14;;;;;;;1.58;0.20;;;24.80;46.50;25.70;101322.00;;;;5005060;28;20053;-31
2023/11/07 12:55:50;;;;;;;2.78;0.43;;;24.80;46.50;25.70;101327.00;;;;5004236;28;20069;-30
2023/11/07 12:58:27;;;;;;;;;;;24.90;46.40;25.70;101321.00;;;;5005863;28;20037;-31
2023/11/07 13:00:58;;;;;;;1.90;0.20;;;24.80;46.70;25.60;101325.00;;;;5006377;28;19979;-28
2023/11/07 13:03:28;;;;;;;0.52;0.30;;;24.90;46.40;25.60;101340.00;;;;5005121;28;20136;-31
2023/11/07 13:06:12;;;;;;;2.88;0.20;;;24.80;46.10;25.60;101325.00;;;;5020496;28;20037;-48
2023/11/07 13:08:47;;;;;;;1.70;0.20;;;24.80;45.90;25.50;101331.00;;;;5006052;28;20038;-39
2023/11/07 13:11:19;;;;;;;1.15;0.63;;;24.80;46.00;25.60;101331.00;;;;5005422;28;20046;-39
2023/11/07 13:13:49;;;;;;;2.50;0.30;;;24.80;45.90;25.50;101334.00;;;;4988842;28;20704;-38
2023/11/07 13:16:17;;;;;;;2.25;0.40;;;24.80;45.80;25.50;101343.00;;;;4989174;28;20034;-39
2023/11/07 13:18:45;;;;;;;1.05;0.45;;;24.80;45.90;25.60;101336.00;;;;5004849;28;20040;-39
2023/11/07 13:21:11;;;;;;;1.00;0.20;;;24.80;45.90;25.60;101334.00;;;;4979801;28;20062;-39
2023/11/07 13:23:38;;;;;;;1.00;0.30;;;24.80;45.90;25.70;101342.00;;;;5005875;28;20042;-39
2023/11/07 13:26:09;;;;;;;2.00;0.28;;;24.90;45.90;25.70;101339.00;;;;4988756;28;20037;-38
2023/11/07 13:28:40;;;;;;;8.07;1.75;;;24.90;45.90;25.80;101341.00;;;;5004612;28;20038;-44
2023/11/07 13:31:07;;;;;;;1.75;0.35;;;25.00;46.80;25.80;101337.00;;;;5004653;28;20117;-41
2023/11/07 13:33:35;;;;;;;1.70;0.30;;;24.90;46.70;25.80;101342.00;;;;5014216;28;20054;-41
2023/11/07 13:36:01;;;;;;;2.30;0.20;;;24.90;46.30;25.90;101330.00;;;;5024093;28;22174;-33
2023/11/07 13:38:27;;;;;;;3.63;0.20;;;24.90;46.30;25.90;101325.00;;;;5024948;28;20033;-56
2023/11/07 13:40:54;;;;;;;0.98;0.10;;;25.00;46.30;25.90;101328.00;;;;5007528;28;20076;-31
2023/11/07 13:43:20;;;;;;;1.35;0.80;;;25.00;46.30;25.90;101320.00;;;;5023965;28;20052;-26
2023/11/07 13:45:46;;;;;;;3.42;0.65;;;25.00;46.10;25.90;101332.00;;;;5024392;28;20041;-28
2023/11/07 13:48:12;;;;;;;0.47;0.17;;;25.00;46.10;26.00;101316.00;;;;5008065;28;20168;-31
2023/11/07 13:50:38;;;;;;;1.45;0.10;;;25.00;46.00;26.00;101327.00;;;;5023965;28;20044;-21
2023/11/07 13:53:05;;;;;;;1.00;0.10;;;25.10;46.50;26.00;101325.00;;;;5024639;28;20042;-24
2023/11/07 13:55:34;;;;;;;1.70;0.40;;;25.10;45.90;26.00;101324.00;;;;5024138;28;20390;-22
2023/11/07 13:58:00;;;;;;;0.50;0.10;;;25.10;45.70;26.00;101324.00;;;;5007281;28;20044;-22
2023/11/07 14:00:27;;;;;;;1.38;0.68;;;25.10;45.70;26.00;101335.00;;;;5025104;28;20101;-25
2023/11/07 14:02:54;;;;;;;1.77;0.20;;;25.10;45.70;26.00;101332.00;;;;5023414;28;20132;-22
2023/11/07 14:05:24;;;;;;;0.35;0.10;;;25.20;45.70;26.00;101329.00;;;;5022416;28;20086;-25
2023/11/07 14:07:51;;;;;;;1.77;0.10;;;25.20;45.40;26.00;101329.00;;;;5026222;28;20025;-22
2023/11/07 14:21:02;;;;;;;1.80;0.10;;;25.80;45.50;26.60;101341.00;;;;5025313;28;20435;-67
2023/11/07 14:23:47;;;;;;;3.08;0.20;;;25.70;44.60;26.50;101343.00;;;;4998445;28;20034;-69
2023/11/07 14:26:13;;;;;;;0.88;0.10;;;25.70;44.30;26.50;101339.00;;;;5003781;28;20222;-49
2023/11/07 14:28:42;;;;;;;2.08;0.13;;;25.60;44.20;26.40;101351.00;;;;5004740;28;20072;-51
2023/11/07 14:31:09;;;;;;;0.40;0.10;;;25.60;44.20;26.40;101348.00;;;;5004643;28;20121;-51
2023/11/07 14:33:36;;;;;;;3.08;0.20;;;25.50;44.10;26.40;101347.00;;;;5003293;28;20442;-49
2023/11/07 14:36:03;;;;;;;1.70;0.38;;;25.50;44.10;26.30;101346.00;;;;4987360;28;20049;-49
2023/11/07 14:38:34;;;;;;;5.95;0.15;;;25.50;44.20;26.30;101347.00;;;;5001200;28;20467;-51
2023/11/07 14:41:07;;;;;;;6.95;0.10;;;25.50;44.50;26.30;101350.00;;;;5005174;28;20077;-59
2023/11/07 14:43:34;;;;;;;3.58;0.20;;;25.50;44.60;26.30;101356.00;;;;4986417;28;20666;-65
2023/11/07 14:46:03;;;;;;;4.63;0.17;;;25.40;44.50;26.20;101340.00;;;;4966364;28;20100;-65
2023/11/07 14:48:29;;;;;;;0.63;0.10;;;25.40;44.30;26.20;101345.00;;;;5004040;28;20058;-65
2023/11/07 14:50:55;;;;;;;3.40;0.10;;;25.40;44.30;26.20;101347.00;;;;5000569;28;20038;-66
2023/11/07 14:53:25;;;;;;;6.68;0.10;;;25.30;44.10;26.10;101339.00;;;;5003906;28;20053;-71
2023/11/07 14:55:52;;;;;;;4.95;0.30;;;25.30;44.00;26.10;101350.00;;;;5003189;28;20045;-58
2023/11/07 14:58:22;;;;;;;2.88;0.10;;;25.30;44.20;26.00;101350.00;;;;5004589;28;20469;-63
2023/11/07 15:00:49;;;;;;;3.13;0.20;;;25.30;44.10;26.00;101345.00;;;;5003337;28;20066;-55
2023/11/07 15:03:17;;;;;;;4.22;0.22;;;25.20;44.20;25.90;101342.00;;;;4996047;28;20053;-58
2023/11/07 15:05:44;;;;;;;1.48;0.10;;;25.20;44.40;25.90;101344.00;;;;5002458;28;20034;-57
2023/11/07 15:08:11;;;;;;;2.15;0.38;;;25.20;44.30;25.90;101346.00;;;;5002997;28;20061;-57
2023/11/07 15:10:37;;;;;;;3.75;0.20;;;25.10;44.30;25.80;101355.00;;;;5003818;28;20033;-53
2023/11/07 15:13:06;;;;;;;2.28;0.10;;;25.10;44.30;25.80;101364.00;;;;5002779;28;20092;-55
2023/11/07 15:15:32;;;;;;;9.63;0.35;;;25.10;44.30;25.70;101361.00;;;;5003327;28;20457;-52
2023/11/07 15:18:03;;;;;;;16.25;0.38;;;25.10;44.30;25.70;101370.00;;;;5001844;28;20451;-53
2023/11/07 15:20:31;;;;;;;7.10;1.15;;;25.10;44.40;25.70;101374.00;;;;4979636;28;20113;-46
2023/11/07 15:23:00;;;;;;;9.50;0.20;;;25.00;44.60;25.60;101362.00;;;;4967475;28;20046;-44
2023/11/07 15:25:30;;;;;;;13.45;1.05;;;25.00;44.40;25.60;101363.00;;;;5000889;28;20046;-46
2023/11/07 15:27:57;;;;;;;2.40;0.28;;;24.90;44.20;25.60;101363.00;;;;4984578;28;20034;-44
2023/11/07 15:30:24;;;;;;;2.78;0.20;;;24.90;44.30;25.50;101360.00;;;;4981506;28;20105;-43
2023/11/07 15:32:51;;;;;;;2.70;0.22;;;24.90;44.20;25.50;101368.00;;;;4971079;28;20038;-44
2023/11/07 15:35:18;;;;;;;0.70;0.10;;;24.90;44.00;25.40;101370.00;;;;4980114;28;20041;-45
2023/11/07 15:37:46;;;;;;;4.03;0.30;;;24.90;44.10;25.40;101379.00;;;;4988315;28;20038;-44
2023/11/07 15:40:14;;;;;;;0.52;0.10;;;24.80;44.00;25.30;101380.00;;;;4988956;28;20403;-45
2023/11/07 15:42:42;;;;;;;3.53;0.10;;;24.80;44.10;25.30;101380.00;;;;4979615;28;20041;-48
2023/11/07 15:45:12;;;;;;;1.00;0.10;;;24.70;44.00;25.20;101383.00;;;;4971351;28;20035;-44
2023/11/07 15:47:43;;;;;;;5.55;0.20;;;24.70;44.10;25.20;101387.00;;;;4980019;28;20104;-44
2023/11/07 15:50:14;;;;;;;1.42;0.30;;;24.60;43.90;25.10;101387.00;;;;4987804;28;20038;-44
2023/11/07 15:52:47;;;;;;;1.95;1.02;;;24.60;44.00;25.10;101386.00;;;;4987497;28;20056;-45
2023/11/07 15:55:13;;;;;;;0.80;0.25;;;24.60;44.00;25.00;101384.00;;;;4947845;28;20656;-44
2023/11/07 15:57:40;;;;;;;1.10;0.10;;;24.50;44.00;25.00;101386.00;;;;4987694;28;20039;-44
2023/11/07 16:00:10;;;;;;;0.47;0.10;;;24.40;43.90;24.90;101385.00;;;;4970480;28;20034;-45
2023/11/07 16:02:47;;;;;;;0.80;0.10;;;24.40;43.90;24.90;101397.00;;;;4931904;28;20096;-44
2023/11/07 16:05:16;;;;;;;0.47;0.10;;;24.30;43.80;24.80;101399.00;;;;4978814;28;20716;-56
2023/11/07 16:07:43;;;;;;;5.30;0.10;;;24.30;43.90;24.80;101400.00;;;;4987281;28;20042;-52
2023/11/07 16:10:11;;;;;;;1.10;0.20;;;24.20;43.70;24.70;101399.00;;;;4963398;28;20050;-56
2023/11/07 16:12:45;;;;;;;0.22;0.20;;;24.20;43.80;24.60;101402.00;;;;4970373;28;20073;-54
2023/11/07 16:15:11;;;;;;;0.17;0.10;;;24.10;43.70;24.60;101404.00;;;;4979106;28;20062;-55
2023/11/07 16:17:46;;;;;;;0.40;0.08;;;24.10;43.80;24.50;101406.00;;;;4970231;28;20065;-55
2023/11/07 16:20:14;;;;;;;1.27;0.32;;;24.00;43.70;24.50;101398.00;;;;4987393;28;20050;-54
2023/11/07 16:22:41;;;;;;;1.58;0.10;;;24.00;43.80;24.40;101400.00;;;;4987302;28;20089;-56
2023/11/07 16:25:07;;;;;;;2.30;0.13;;;23.90;43.70;24.40;101402.00;;;;4978949;28;20040;-43
2023/11/07 16:27:34;;;;;;;0.20;0.10;;;23.90;43.70;24.30;101403.00;;;;4987259;28;20487;-44
2023/11/07 16:30:01;;;;;;;0.32;0.10;;;23.80;43.70;24.30;101404.00;;;;4987416;28;20546;-45
2023/11/07 16:32:27;;;;;;;1.80;0.20;;;23.80;43.70;24.30;101408.00;;;;4969930;28;20129;-44
2023/11/07 16:34:53;;;;;;;1.50;0.20;;;23.70;43.80;24.20;101417.00;;;;4987203;28;20342;-46
2023/11/07 16:37:19;;;;;;;1.85;0.20;;;23.70;43.80;24.20;101415.00;;;;4970209;28;20053;-44
2023/11/07 16:39:46;;;;;;;1.85;0.30;;;23.70;43.80;24.20;101416.00;;;;4970039;28;20038;-44
2023/11/07 16:42:13;;;;;;;1.17;0.10;;;23.60;43.80;24.10;101421.00;;;;4986030;28;20042;-45
2023/11/07 16:44:40;;;;;;;1.75;0.10;;;23.60;43.80;24.10;101426.00;;;;4969773;28;20040;-46
2023/11/07 16:47:09;;;;;;;1.30;0.25;;;23.50;43.90;24.00;101419.00;;;;4986715;28;20026;-46
2023/11/07 16:49:40;;;;;;;1.65;0.10;;;23.50;43.90;24.00;101423.00;;;;4986539;28;20111;-45
2023/11/07 16:52:09;;;;;;;0.52;0.10;;;23.50;43.80;24.00;101429.00;;;;4970416;28;20042;-45
2023/11/07 16:54:38;;;;;;;1.75;0.20;;;23.40;43.80;23.90;101430.00;;;;4978079;28;20034;-46
2023/11/07 16:57:05;;;;;;;0.85;0.10;;;23.40;43.90;23.90;101424.00;;;;4986574;28;20061;-46
2023/11/07 16:59:32;;;;;;;0.25;0.20;;;23.30;43.80;23.90;101425.00;;;;4953276;28;20061;-45
2023/11/07 17:02:18;;;;;;;0.10;0.10;;;23.30;43.90;23.80;101428.00;;;;4967104;28;20045;-45
2023/11/07 17:04:44;;;;;;;1.60;0.10;;;23.30;44.00;23.80;101430.00;;;;4986574;28;20049;-47
2023/11/07 17:07:12;;;;;;;0.77;0.25;;;23.20;44.00;23.80;101428.00;;;;4946647;28;20136;-49
2023/11/07 17:09:38;;;;;;;0.93;0.25;;;23.10;44.00;23.70;101431.00;;;;4969884;28;20038;-47
2023/11/07 17:12:04;;;;;;;0.50;0.10;;;23.10;44.00;23.70;101429.00;;;;4969468;28;20816;-45
2023/11/07 17:14:30;;;;;;;0.50;0.10;;;23.10;44.00;23.60;101434.00;;;;4986532;28;20050;-46
2023/11/07 17:16:58;;;;;;;1.40;0.50;;;23.10;44.00;23.60;101434.00;;;;4953098;28;20050;-48
2023/11/07 17:19:24;;;;;;;0.65;0.10;;;23.00;44.00;23.60;101435.00;;;;4965632;28;20057;-46
2023/11/07 17:21:49;;;;;;;1.10;0.45;;;23.00;44.10;23.60;101436.00;;;;4967248;28;20031;-44
2023/11/07 17:24:16;;;;;;;1.33;0.10;;;22.90;44.10;23.60;101436.00;;;;4967245;28;20038;-45
2023/11/07 17:26:42;;;;;;;2.10;0.10;;;22.90;44.10;23.50;101440.00;;;;4967129;28;20053;-45
2023/11/07 17:29:09;;;;;;;1.38;0.20;;;22.90;44.10;23.50;101439.00;;;;4966304;28;20062;-48
2023/11/07 17:31:37;;;;;;;1.33;0.10;;;22.90;44.20;23.50;101440.00;;;;4966537;28;20069;-45
2023/11/07 17:34:06;;;;;;;1.33;0.10;;;22.90;44.30;23.50;101443.00;;;;4966475;28;20046;-45
2023/11/07 17:36:34;;;;;;;0.95;0.20;;;22.80;44.20;23.40;101443.00;;;;4966146;28;20038;-48
2023/11/07 17:39:01;;;;;;;1.05;0.10;;;22.80;44.30;23.40;101443.00;;;;4957360;28;20070;-44
2023/11/07 17:41:27;;;;;;;0.63;0.10;;;22.80;44.30;23.40;101450.00;;;;4965876;28;20034;-45
2023/11/07 17:43:53;;;;;;;0.52;0.10;;;22.80;44.30;23.40;101448.00;;;;4967522;28;20041;-46
2023/11/07 17:46:22;;;;;;;0.55;0.47;;;22.70;44.30;23.30;101446.00;;;;4965794;28;20122;-57
2023/11/07 17:48:50;;;;;;;1.13;0.10;;;22.70;44.40;23.30;101458.00;;;;4967400;28;20056;-53
2023/11/07 17:51:22;;;;;;;1.55;0.95;;;22.70;44.40;23.30;101461.00;;;;4965932;28;20027;-52
2023/11/07 17:53:54;;;;;;;0.80;0.40;;;22.70;44.40;23.30;101462.00;;;;4981224;28;20027;-56
2023/11/07 17:56:21;;;;;;;0.55;0.38;;;22.60;44.30;23.30;101463.00;;;;4958360;28;20045;-50
2023/11/07 17:58:47;;;;;;;1.85;0.20;;;22.60;44.40;23.30;101468.00;;;;4966709;28;20060;-54
2023/11/07 18:01:18;;;;;;;0.40;0.15;;;22.60;44.50;23.20;101466.00;;;;4965614;28;20049;-55
2023/11/07 18:03:45;;;;;;;2.47;0.10;;;22.60;44.50;23.20;101463.00;;;;4965997;28;20031;-53
2023/11/07 18:06:11;;;;;;;3.88;0.15;;;22.60;44.50;23.20;101471.00;;;;4957217;28;20047;-46
2023/11/07 18:08:39;;;;;;;0.52;0.52;;;22.50;44.50;23.20;101476.00;;;;4957167;28;20567;-46
2023/11/07 18:11:05;;;;;;;1.13;0.17;;;22.50;45.10;23.20;101478.00;;;;4966331;28;20145;-45
2023/11/07 18:13:31;;;;;;;0.90;0.10;;;22.50;44.50;23.20;101486.00;;;;4949468;28;20113;-48
2023/11/07 18:15:57;;;;;;;1.33;0.25;;;22.50;44.50;23.10;101480.00;;;;4965542;28;20432;-48
2023/11/07 18:18:24;;;;;;;1.77;0.30;;;22.40;44.60;23.10;101482.00;;;;4966633;28;20039;-45
2023/11/07 18:20:51;;;;;;;0.30;0.30;;;22.40;44.60;23.10;101489.00;;;;4972708;28;20055;-45
2023/11/07 18:23:17;;;;;;;0.47;0.10;;;22.40;44.60;23.10;101496.00;;;;4965856;28;20034;-47
2023/11/07 18:25:43;;;;;;;0.90;0.85;;;22.40;44.60;23.10;101490.00;;;;4940829;28;20074;-50
2023/11/07 18:28:09;;;;;;;1.95;0.20;;;22.40;44.70;23.00;101485.00;;;;4964725;28;20034;-55
2023/11/07 18:30:37;;;;;;;1.60;0.20;;;22.40;44.70;23.00;101488.00;;;;4949042;28;20061;-56
2023/11/07 18:33:04;;;;;;;2.13;0.20;;;22.40;44.70;23.00;101495.00;;;;4965931;28;20105;-55
2023/11/07 18:35:30;;;;;;;0.17;0.10;;;22.30;44.70;23.00;101488.00;;;;4956361;28;20073;-54
2023/11/07 18:37:56;;;;;;;1.17;0.10;;;22.30;44.80;23.00;101494.00;;;;4964548;28;20077;-56
2023/11/07 18:40:21;;;;;;;1.55;0.10;;;22.30;44.70;23.00;101496.00;;;;4966240;28;20039;-55
2023/11/07 18:42:48;;;;;;;1.67;0.32;;;22.30;44.80;23.00;101494.00;;;;4957591;28;20039;-56
2023/11/07 18:45:15;;;;;;;0.50;0.17;;;22.30;44.80;23.00;101499.00;;;;4925141;28;20043;-56
2023/11/07 18:47:41;;;;;;;0.20;0.10;;;22.20;44.70;23.00;101501.00;;;;4980381;28;20094;-51
2023/11/07 18:50:08;;;;;;;2.13;0.20;;;22.20;44.80;23.00;101499.00;;;;4980995;28;20599;-56
2023/11/07 18:52:34;;;;;;;0.80;0.30;;;22.20;44.70;22.90;101495.00;;;;4941445;28;20031;-56
2023/11/07 18:55:05;;;;;;;0.30;0.10;;;22.20;44.80;22.90;101505.00;;;;4949564;28;20042;-59
2023/11/07 18:57:35;;;;;;;0.30;0.10;;;22.20;44.80;22.90;101507.00;;;;4957641;28;20043;-57
2023/11/07 19:00:01;;;;;;;3.03;0.10;;;22.20;44.80;22.90;101505.00;;;;4941345;28;20357;-51
2023/11/07 19:02:28;;;;;;;1.02;0.10;;;22.20;44.80;22.90;101512.00;;;;4980728;28;20035;-57
2023/11/07 19:04:54;;;;;;;0.38;0.10;;;22.20;45.40;22.90;101506.00;;;;4965274;28;20034;-46
2023/11/07 19:07:20;;;;;;;0.70;0.20;;;22.10;44.80;22.90;101508.00;;;;4967368;28;20038;-47
2023/11/07 19:09:48;;;;;;;0.20;0.10;;;22.20;44.80;22.90;101511.00;;;;4960639;28;21741;-48
2023/11/07 19:12:16;;;;;;;0.60;0.30;;;22.20;44.90;22.90;101516.00;;;;4969442;28;20044;-46
2023/11/07 19:14:42;;;;;;;1.13;0.20;;;22.10;44.80;22.90;101513.00;;;;4969419;28;20042;-44
2023/11/07 19:17:08;;;;;;;2.05;0.55;;;22.10;44.90;22.90;101526.00;;;;4969600;28;20078;-49
2023/11/07 19:19:35;;;;;;;1.75;0.65;;;22.10;44.90;22.80;101525.00;;;;4977319;28;20442;-47
2023/11/07 19:22:03;;;;;;;1.23;0.20;;;22.10;44.90;22.80;101517.00;;;;4971166;28;20091;-47
2023/11/07 19:24:30;;;;;;;0.77;0.20;;;22.10;44.90;22.80;101521.00;;;;4971795;28;20050;-46
2023/11/07 19:26:57;;;;;;;0.63;0.10;;;22.10;44.90;22.80;101513.00;;;;4988192;28;20058;-46
2023/11/07 19:29:23;;;;;;;0.80;0.10;;;22.10;45.00;22.80;101507.00;;;;4988092;28;20046;-47
2023/11/07 19:31:51;;;;;;;1.88;0.10;;;22.10;45.00;22.80;101512.00;;;;4988422;28;20038;-46
2023/11/07 19:34:21;;;;;;;0.52;0.35;;;22.10;44.90;22.80;101517.00;;;;4971867;28;20050;-52
2023/11/07 19:36:49;;;;;;;1.65;0.20;;;22.10;45.00;22.80;101520.00;;;;4988339;28;20042;-48
2023/11/07 19:39:17;;;;;;;3.67;0.20;;;22.00;44.90;22.80;101524.00;;;;4971633;28;20057;-50
2023/11/07 19:41:43;;;;;;;2.50;0.20;;;22.10;45.20;22.80;101530.00;;;;4986123;28;20666;-47
2023/11/07 19:44:10;;;;;;;0.85;0.40;;;22.00;45.30;22.80;101531.00;;;;4990079;28;20063;-49
2023/11/07 19:46:36;;;;;;;1.95;0.40;;;22.10;45.40;22.80;101532.00;;;;4988301;28;20096;-53
2023/11/07 19:49:05;;;;;;;3.00;0.15;;;22.10;45.50;22.90;101530.00;;;;4988826;28;20049;-63
2023/11/07 19:51:31;;;;;;;3.42;0.32;;;22.20;45.70;22.90;101530.00;;;;4987776;28;20084;-48
2023/11/07 19:53:57;;;;;;;0.80;0.30;;;22.20;46.30;23.00;101526.00;;;;4988350;28;20034;-49
2023/11/07 19:56:23;;;;;;;0.80;0.38;;;22.20;45.70;23.00;101536.00;;;;4969533;28;20038;-52
2023/11/07 19:58:49;;;;;;;0.35;0.30;;;22.20;45.80;23.10;101530.00;;;;4987894;28;20053;-50
2023/11/07 20:01:18;;;;;;;1.70;0.22;;;22.30;45.90;23.20;101529.00;;;;4987722;28;20096;-47
2023/11/07 20:03:46;;;;;;;0.82;0.20;;;22.40;45.90;23.30;101527.00;;;;4988306;28;20093;-51
2023/11/07 20:06:16;;;;;;;3.55;0.30;;;22.50;46.00;23.40;101526.00;;;;4987181;28;20073;-43
2023/11/07 20:08:42;;;;;;;3.70;0.20;;;22.50;46.00;23.50;101530.00;;;;4987706;28;20044;-47
2023/11/07 20:11:09;;;;;;;3.28;0.38;;;22.60;45.90;23.50;101530.00;;;;4970460;28;20137;-44
2023/11/07 20:13:35;;;;;;;6.45;0.20;;;22.60;45.70;23.60;101530.00;;;;4987222;28;20038;-45
2023/11/07 20:16:02;;;;;;;2.03;0.32;;;22.70;45.60;23.60;101527.00;;;;4970142;28;20045;-44
2023/11/07 20:18:31;;;;;;;2.10;0.30;;;22.80;45.70;23.70;101521.00;;;;4979672;28;20042;-47
2023/11/07 20:20:58;;;;;;;14.80;0.25;;;22.80;45.60;23.70;101512.00;;;;4969445;28;20038;-50
2023/11/07 20:23:24;;;;;;;2.50;0.17;;;22.80;45.60;23.80;101518.00;;;;4986904;28;20042;-45
2023/11/07 20:25:51;;;;;;;0.47;0.10;;;22.90;45.50;23.80;101521.00;;;;4953801;28;20058;-67
2023/11/07 20:28:17;;;;;;;2.28;0.25;;;22.90;45.50;23.90;101523.00;;;;4970171;28;20089;-68
2023/11/07 20:30:43;;;;;;;1.58;0.20;;;22.90;45.50;23.90;101522.00;;;;4979718;28;20038;-69
2023/11/07 20:33:10;;;;;;;1.38;0.20;;;23.00;45.40;23.90;101523.00;;;;4954063;28;20390;-66
2023/11/07 20:35:39;;;;;;;2.13;0.13;;;23.00;45.30;23.90;101531.00;;;;4954377;28;20042;-66
2023/11/07 20:38:07;;;;;;;0.90;0.10;;;23.10;45.40;23.90;101522.00;;;;4986980;28;20065;-66
2023/11/07 20:40:37;;;;;;;0.40;0.10;;;23.10;45.30;23.90;101529.00;;;;4986795;28;20496;-67
2023/11/07 20:43:09;;;;;;;0.73;0.10;;;23.10;45.20;24.00;101535.00;;;;4986873;28;20030;-64
2023/11/07 20:45:37;;;;;;;0.90;0.10;;;23.10;45.20;24.00;101529.00;;;;4985992;28;20042;-46
2023/11/07 20:48:03;;;;;;;0.20;0.10;;;23.20;45.10;24.00;101535.00;;;;4986340;28;20041;-48
2023/11/07 20:50:30;;;;;;;1.13;0.10;;;23.20;45.10;24.00;101545.00;;;;4985316;28;20105;-46
2023/11/07 20:52:55;;;;;;;2.38;0.10;;;23.20;45.00;24.10;101544.00;;;;4985500;28;20046;-47
2023/11/07 20:55:22;;;;;;;1.13;0.28;;;23.20;45.00;24.10;101536.00;;;;4986921;28;20068;-47
2023/11/07 20:57:49;;;;;;;1.55;0.20;;;23.30;44.90;24.10;101544.00;;;;4969473;28;20045;-51
2023/11/07 21:00:16;;;;;;;3.20;0.10;;;23.30;44.80;24.10;101541.00;;;;4986397;28;20114;-49
2023/11/07 21:02:43;;;;;;;1.88;0.10;;;23.30;44.80;24.10;101546.00;;;;4969921;28;20038;-50
2023/11/07 21:05:09;;;;;;;3.53;0.20;;;23.30;44.80;24.20;101546.00;;;;4986361;28;20030;-65
2023/11/07 21:07:38;;;;;;;0.93;0.20;;;23.30;44.70;24.20;101547.00;;;;4986135;28;20467;-68
2023/11/07 21:10:10;;;;;;;1.58;0.20;;;23.40;44.70;24.10;101552.00;;;;4963154;28;20041;-64
2023/11/07 21:12:37;;;;;;;1.42;0.30;;;23.40;44.60;24.20;101550.00;;;;4963302;28;20114;-67
2023/11/07 21:15:05;;;;;;;1.65;0.20;;;23.40;44.60;24.20;101550.00;;;;4962160;28;20042;-65
2023/11/07 21:17:32;;;;;;;2.28;0.10;;;23.40;44.60;24.20;101544.00;;;;4984949;28;20086;-65
2023/11/07 21:19:59;;;;;;;0.60;0.10;;;23.40;44.50;24.20;101558.00;;;;4986708;28;20686;-64